Terminal Aerodrome Forecast
Issued by NWS

Home | Current Version | Previous Version | Graphics & Text | Print | Product List | Glossary On
Versions: 1 2 3 4 5 6 7 8 9 10 11 12 13 14 15
000
FTUS43 KMPX 211738
TAFRWF
TAF
KRWF 211738Z 2118/2218 30015G25KT P6SM SCT010 OVC020
     FM212200 30014G22KT P6SM OVC045
     FM220100 29010KT P6SM BKN060
     FM220600 23006KT P6SM BKN050
     FM220800 24005KT P6SM SCT070
     FM221400 30006KT P6SM SCT150=

USA.gov is the U.S. government's official web portal to all federal, state and local government web resources and services.